Cornucopia Princes — WBQ4947 — position and weather

sailwx.info

Track history (hours):
 
Tides and Currents Weather Stations Pressure Air Temp Water Temp Dewpoint Dewpoint Depression Visibility Wind Speed Wind Dir Waves Ship Positions

Cornucopia Princes

Last reported at 2017-Sep-17 05:04 UTC. Time now 2017-Sep-22 19:05 UTC.
Position N 40°30' W 074°17'.

Length 46 m; draft 3 m.

Type: Passenger vessel. MMSI: 36700993.

Date/timePositionNaut miles runAvg speedWind from/ knotsBaromVisibWave heightAir tempDewpointWater temp
2017-Sep-17 05:04N 40°30' W 074°17'2 0.9
2017-Sep-17 02:40N 40°29' W 074°15'4 0.5
2017-Sep-16 17:55N 40°29' W 074°09'1 0.1
2017-Sep-16 01:13N 40°29' W 074°08'1 5.2
2017-Sep-16 00:59N 40°29' W 074°09'6 0.2
2017-Sep-14 13:31N 40°30' W 074°17'0 0.0
2017-Sep-14 13:22N 40°30' W 074°17'0 0.0
2017-Sep-14 12:57N 40°30' W 074°17'0 0.0
2017-Sep-14 12:23N 40°30' W 074°17'0 0.0
2017-Sep-14 12:00N 40°30' W 074°17'0 0.0
2017-Sep-14 07:58N 40°30' W 074°17'4 0.7
2017-Sep-14 02:48N 40°33' W 074°14'2 5.7
2017-Sep-14 02:30N 40°35' W 074°13'3 7.0
2017-Sep-14 02:00N 40°38' W 074°12'1 1.8
2017-Sep-14 01:29N 40°39' W 074°11'0 0.0
2017-Sep-14 01:00N 40°39' W 074°11'2 3.8
2017-Sep-14 00:30N 40°39' W 074°09'3 5.3
2017-Sep-14 00:00N 40°39' W 074°05'3 6.0
2017-Sep-13 23:30N 40°41' W 074°02'2 4.9
2017-Sep-13 23:00N 40°39' W 074°05'4 8.0
2017-Sep-13 22:30N 40°39' W 074°10'1 2.1
2017-Sep-13 22:00N 40°39' W 074°11'0 0.0
2017-Sep-13 21:30N 40°39' W 074°11'0 0.0
2017-Sep-13 20:57N 40°39' W 074°11'0 0.7
2017-Sep-13 20:30N 40°39' W 074°11'4 7.4
2017-Sep-13 19:59N 40°35' W 074°13'6 1.0
2017-Sep-13 14:05N 40°30' W 074°17'0 0.0
2017-Sep-13 13:51N 40°30' W 074°17'0 0.0
2017-Sep-13 13:20N 40°30' W 074°17'0 0.0
2017-Sep-13 11:58N 40°30' W 074°17'0 0.0
2017-Sep-13 11:29N 40°30' W 074°17'0 0.0
2017-Sep-13 10:56N 40°30' W 074°17'0 0.0
2017-Sep-13 10:25N 40°30' W 074°17'0 0.0
2017-Sep-13 09:59N 40°30' W 074°17'0 0.0
2017-Sep-13 09:27N 40°30' W 074°17'0 0.0
2017-Sep-13 08:59N 40°30' W 074°17'0 0.0
2017-Sep-13 08:07N 40°30' W 074°17'0 0.0
2017-Sep-13 07:58N 40°30' W 074°17'0 0.0
2017-Sep-13 07:28N 40°30' W 074°17'0 0.0
2017-Sep-13 06:58N 40°30' W 074°17'0 0.0
2017-Sep-13 06:13N 40°30' W 074°17'0 0.0
2017-Sep-13 05:53N 40°30' W 074°17'0 0.0
2017-Sep-13 05:26N 40°30' W 074°17'0 0.0
2017-Sep-13 03:23N 40°30' W 074°17'0 0.0
2017-Sep-12 09:12N 40°30' W 074°17'0 0.0
2017-Sep-12 09:00N 40°30' W 074°17'6 0.2
2017-Sep-10 23:52N 40°30' W 074°09'2 3.9
2017-Sep-10 23:23N 40°30' W 074°06'1 0.1
2017-Sep-10 01:33N 40°29' W 074°08'0 4.4
2017-Sep-10 01:30N 40°29' W 074°08'0 0.0
2017-Sep-09 17:53N 40°29' W 074°08'0 0.0
2017-Sep-09 01:14N 40°29' W 074°08'2 5.3
2017-Sep-09 00:56N 40°29' W 074°10'  
Track history (hours):
 
Tides and Currents Weather Stations Pressure Air Temp Water Temp Dewpoint Dewpoint Depression Visibility Wind Speed Wind Dir Waves Ship Positions

Cornucopia Princes

Last reported at 2017-Sep-17 05:04 UTC. Time now 2017-Sep-22 19:05 UTC.
Position N 40°30' W 074°17'.

Length 46 m; draft 3 m.

Type: Passenger vessel. MMSI: 36700993.

Date/timePositionNaut miles runAvg speedWind from/ knotsBaromVisibWave heightAir tempDewpointWater temp
2017-Sep-17 05:04N 40°30' W 074°17'2 0.9
2017-Sep-17 02:40N 40°29' W 074°15'4 0.5
2017-Sep-16 17:55N 40°29' W 074°09'1 0.1
2017-Sep-16 01:13N 40°29' W 074°08'1 5.2
2017-Sep-16 00:59N 40°29' W 074°09'6 0.2
2017-Sep-14 13:31N 40°30' W 074°17'0 0.0
2017-Sep-14 13:22N 40°30' W 074°17'0 0.0
2017-Sep-14 12:57N 40°30' W 074°17'0 0.0
2017-Sep-14 12:23N 40°30' W 074°17'0 0.0
2017-Sep-14 12:00N 40°30' W 074°17'0 0.0
2017-Sep-14 07:58N 40°30' W 074°17'4 0.7
2017-Sep-14 02:48N 40°33' W 074°14'2 5.7
2017-Sep-14 02:30N 40°35' W 074°13'3 7.0
2017-Sep-14 02:00N 40°38' W 074°12'1 1.8
2017-Sep-14 01:29N 40°39' W 074°11'0 0.0
2017-Sep-14 01:00N 40°39' W 074°11'2 3.8
2017-Sep-14 00:30N 40°39' W 074°09'3 5.3
2017-Sep-14 00:00N 40°39' W 074°05'3 6.0
2017-Sep-13 23:30N 40°41' W 074°02'2 4.9
2017-Sep-13 23:00N 40°39' W 074°05'4 8.0
2017-Sep-13 22:30N 40°39' W 074°10'1 2.1
2017-Sep-13 22:00N 40°39' W 074°11'0 0.0
2017-Sep-13 21:30N 40°39' W 074°11'0 0.0
2017-Sep-13 20:57N 40°39' W 074°11'0 0.7
2017-Sep-13 20:30N 40°39' W 074°11'4 7.4
2017-Sep-13 19:59N 40°35' W 074°13'6 1.0
2017-Sep-13 14:05N 40°30' W 074°17'0 0.0
2017-Sep-13 13:51N 40°30' W 074°17'0 0.0
2017-Sep-13 13:20N 40°30' W 074°17'0 0.0
2017-Sep-13 11:58N 40°30' W 074°17'0 0.0
2017-Sep-13 11:29N 40°30' W 074°17'0 0.0
2017-Sep-13 10:56N 40°30' W 074°17'0 0.0
2017-Sep-13 10:25N 40°30' W 074°17'0 0.0
2017-Sep-13 09:59N 40°30' W 074°17'0 0.0
2017-Sep-13 09:27N 40°30' W 074°17'0 0.0
2017-Sep-13 08:59N 40°30' W 074°17'0 0.0
2017-Sep-13 08:07N 40°30' W 074°17'0 0.0
2017-Sep-13 07:58N 40°30' W 074°17'0 0.0
2017-Sep-13 07:28N 40°30' W 074°17'0 0.0
2017-Sep-13 06:58N 40°30' W 074°17'0 0.0
2017-Sep-13 06:13N 40°30' W 074°17'0 0.0
2017-Sep-13 05:53N 40°30' W 074°17'0 0.0
2017-Sep-13 05:26N 40°30' W 074°17'0 0.0
2017-Sep-13 03:23N 40°30' W 074°17'0 0.0
2017-Sep-12 09:12N 40°30' W 074°17'0 0.0
2017-Sep-12 09:00N 40°30' W 074°17'6 0.2
2017-Sep-10 23:52N 40°30' W 074°09'2 3.9
2017-Sep-10 23:23N 40°30' W 074°06'1 0.1
2017-Sep-10 01:33N 40°29' W 074°08'0 4.4
2017-Sep-10 01:30N 40°29' W 074°08'0 0.0
2017-Sep-09 17:53N 40°29' W 074°08'0 0.0
2017-Sep-09 01:14N 40°29' W 074°08'2 5.3
2017-Sep-09 00:56N 40°29' W 074°10'  

Dump ship's entire track history